createdAt,value
2018-06-18T00:04:23.488Z,88
2018-06-18T00:09:23.292Z,88
2018-06-18T00:14:23.375Z,89
2018-06-18T00:19:23.179Z,89
2018-06-18T00:24:23.973Z,89
2018-06-18T00:29:23.792Z,89
2018-06-18T00:34:23.627Z,90
2018-06-18T00:39:23.592Z,90
2018-06-18T00:44:23.401Z,90
2018-06-18T00:49:23.206Z,90
2018-06-18T00:54:24.157Z,90
2018-06-18T00:59:23.939Z,90
2018-06-18T01:04:23.863Z,90
2018-06-18T01:09:23.515Z,90
2018-06-18T01:14:23.566Z,90
2018-06-18T01:19:23.472Z,90
2018-06-18T01:24:23.348Z,91
2018-06-18T01:29:24.189Z,91
2018-06-18T01:34:24.097Z,91
2018-06-18T01:39:23.959Z,91
2018-06-18T01:44:23.889Z,91
2018-06-18T01:49:23.756Z,91
2018-06-18T01:54:23.626Z,91
2018-06-18T01:59:23.467Z,91
2018-06-18T02:04:23.449Z,92
2018-06-18T02:09:23.672Z,92
2018-06-18T02:14:23.473Z,92
2018-06-18T02:19:23.440Z,92
2018-06-18T02:24:23.281Z,92
2018-06-18T02:29:24.149Z,92
2018-06-18T02:34:24.014Z,92
2018-06-18T02:39:23.840Z,92
2018-06-18T02:44:23.605Z,92
2018-06-18T02:49:23.512Z,92
2018-06-18T02:54:23.369Z,93
2018-06-18T02:59:24.452Z,93
2018-06-18T03:04:23.988Z,93
2018-06-18T03:09:23.442Z,93
2018-06-18T03:14:24.232Z,93
2018-06-18T03:19:24.057Z,93
2018-06-18T03:24:24.068Z,93
2018-06-18T03:29:23.914Z,93
2018-06-18T03:34:23.736Z,93
2018-06-18T03:39:23.556Z,93
2018-06-18T03:44:23.418Z,94
2018-06-18T03:49:24.344Z,94
2018-06-18T03:54:24.200Z,94
2018-06-18T03:59:23.999Z,94
2018-06-18T04:04:24.027Z,94
2018-06-18T04:09:23.937Z,94
2018-06-18T04:14:23.809Z,94
2018-06-18T04:19:23.707Z,94
2018-06-18T04:24:23.599Z,95
2018-06-18T04:29:23.570Z,95
2018-06-18T04:34:24.391Z,95
2018-06-18T04:39:24.369Z,95
2018-06-18T04:44:24.229Z,95
2018-06-18T04:49:24.056Z,95
2018-06-18T04:54:23.952Z,95
2018-06-18T04:59:23.875Z,95
2018-06-18T05:04:23.889Z,95
2018-06-18T05:09:24.072Z,95
2018-06-18T05:14:23.917Z,96
2018-06-18T05:19:23.674Z,96
2018-06-18T05:24:23.580Z,96
2018-06-18T05:29:24.423Z,96
2018-06-18T05:34:24.236Z,96
2018-06-18T05:39:24.024Z,96
2018-06-18T05:44:23.779Z,96
2018-06-18T05:49:23.732Z,96
2018-06-18T05:54:23.540Z,96
2018-06-18T05:59:24.351Z,96
2018-06-18T06:04:23.601Z,96
2018-06-18T06:09:24.485Z,96
2018-06-18T06:14:24.364Z,96
2018-06-18T06:19:24.454Z,96
2018-06-18T06:24:24.293Z,97
2018-06-18T06:29:24.124Z,97
2018-06-18T06:34:23.981Z,96
2018-06-18T06:39:23.831Z,96
2018-06-18T06:44:23.627Z,96
2018-06-18T06:49:24.476Z,96
2018-06-18T06:54:24.281Z,97
2018-06-18T06:59:24.061Z,97
2018-06-18T07:04:24.000Z,95
2018-06-18T07:09:24.424Z,95
2018-06-18T07:14:24.192Z,93
2018-06-18T07:19:24.030Z,93
2018-06-18T07:24:23.896Z,90
2018-06-18T07:29:23.817Z,90
2018-06-18T07:34:24.666Z,87
2018-06-18T07:39:24.633Z,87
2018-06-18T07:44:24.558Z,84
2018-06-18T07:49:24.371Z,84
2018-06-18T07:54:24.264Z,82
2018-06-18T07:59:24.219Z,82
2018-06-18T08:04:24.431Z,80
2018-06-18T08:09:24.227Z,80
2018-06-18T08:14:24.041Z,79
2018-06-18T08:19:23.788Z,79
2018-06-18T08:24:24.557Z,78
2018-06-18T08:29:24.377Z,78
2018-06-18T08:34:24.444Z,77
2018-06-18T08:39:24.242Z,77
2018-06-18T08:44:24.205Z,72
2018-06-18T08:49:24.199Z,72
2018-06-18T08:54:23.980Z,70
2018-06-18T08:59:23.946Z,70
2018-06-18T09:04:23.865Z,70
2018-06-18T09:09:24.233Z,70
2018-06-18T09:14:24.075Z,68
2018-06-18T09:19:24.032Z,68
2018-06-18T09:24:23.814Z,68
2018-06-18T09:29:24.628Z,68
2018-06-18T09:34:24.545Z,67
2018-06-18T09:39:24.466Z,67
2018-06-18T09:44:24.362Z,67
2018-06-18T09:49:24.165Z,67
2018-06-18T09:54:23.943Z,66
2018-06-18T09:59:24.821Z,66
2018-06-18T10:04:24.791Z,66
2018-06-18T10:09:24.723Z,66
2018-06-18T10:14:24.476Z,66
2018-06-18T10:19:24.233Z,66
2018-06-18T10:24:24.157Z,68
2018-06-18T10:29:23.964Z,68
2018-06-18T10:34:23.983Z,68
2018-06-18T10:39:24.784Z,68
2018-06-18T10:44:24.635Z,70
2018-06-18T10:49:24.681Z,70
2018-06-18T10:54:24.485Z,72
2018-06-18T10:59:24.447Z,72
2018-06-18T11:04:24.364Z,70
2018-06-18T11:09:24.011Z,70
2018-06-18T11:14:24.884Z,68
2018-06-18T11:19:24.736Z,68
2018-06-18T11:24:24.614Z,70
2018-06-18T11:29:24.566Z,70
2018-06-18T11:34:24.381Z,69
2018-06-18T11:39:24.400Z,69
2018-06-18T11:44:24.334Z,71
2018-06-18T11:49:24.095Z,71
2018-06-18T11:54:24.938Z,72
2018-06-18T11:59:24.863Z,72
2018-06-18T12:04:24.816Z,74
2018-06-18T12:09:24.692Z,74
2018-06-18T12:14:24.120Z,77
2018-06-18T12:19:24.011Z,77
2018-06-18T12:24:24.826Z,76
2018-06-18T12:29:24.570Z,76
2018-06-18T12:34:24.461Z,76
2018-06-18T12:39:24.276Z,76
2018-06-18T12:44:24.046Z,75
2018-06-18T12:49:24.938Z,75
2018-06-18T12:54:24.816Z,75
2018-06-18T12:59:24.687Z,75
2018-06-18T13:04:24.603Z,75
2018-06-18T13:09:24.593Z,75
2018-06-18T13:14:24.301Z,76
2018-06-18T13:19:24.185Z,76
2018-06-18T13:24:24.085Z,76
2018-06-18T13:29:24.146Z,76
2018-06-18T13:34:24.059Z,76
2018-06-18T13:39:24.932Z,76
2018-06-18T13:44:24.798Z,77
2018-06-18T13:49:24.673Z,77
2018-06-18T13:54:24.491Z,76
2018-06-18T13:59:24.305Z,76
2018-06-18T14:04:24.300Z,76
2018-06-18T14:09:25.092Z,76
2018-06-18T14:14:24.776Z,76
2018-06-18T14:19:24.586Z,76
2018-06-18T14:24:24.442Z,76
2018-06-18T14:29:24.332Z,76
2018-06-18T14:34:24.297Z,76
2018-06-18T14:39:24.169Z,76
2018-06-18T14:44:25.034Z,77
2018-06-18T14:49:25.033Z,77
2018-06-18T14:54:25.038Z,81
2018-06-18T14:59:25.041Z,81
2018-06-18T15:04:24.923Z,80
2018-06-18T15:09:25.214Z,80
2018-06-18T15:14:24.744Z,78
2018-06-18T15:19:24.786Z,78
2018-06-18T15:24:24.716Z,76
2018-06-18T15:29:24.643Z,76
2018-06-18T15:34:24.564Z,73
2018-06-18T15:39:24.349Z,73
2018-06-18T15:44:24.323Z,72
2018-06-18T15:49:25.285Z,72
2018-06-18T15:54:25.204Z,72
2018-06-18T15:59:25.095Z,72
2018-06-18T16:04:25.121Z,72
2018-06-18T16:09:25.037Z,72
2018-06-18T16:14:25.231Z,73
2018-06-18T16:19:25.220Z,73
2018-06-18T16:24:25.107Z,72
2018-06-18T16:29:24.999Z,72
2018-06-18T16:34:24.944Z,72
2018-06-18T16:39:24.821Z,72
2018-06-18T16:44:24.678Z,71
2018-06-18T16:49:24.517Z,71
2018-06-18T16:54:24.357Z,71
2018-06-18T16:59:24.306Z,71
2018-06-18T17:04:25.380Z,71
2018-06-18T17:09:25.228Z,71
2018-06-18T17:14:24.668Z,71
2018-06-18T17:19:24.519Z,71
2018-06-18T17:24:24.439Z,72
2018-06-18T17:29:24.349Z,72
2018-06-18T17:34:25.286Z,72
2018-06-18T17:39:25.146Z,72
2018-06-18T17:44:25.015Z,73
2018-06-18T17:49:24.953Z,73
2018-06-18T17:54:24.858Z,73
2018-06-18T17:59:24.849Z,73
2018-06-18T18:04:24.772Z,74
2018-06-18T18:09:24.716Z,74
2018-06-18T18:14:24.586Z,74
2018-06-18T18:19:24.557Z,74
2018-06-18T18:24:24.375Z,75
2018-06-18T18:29:25.191Z,75
2018-06-18T18:34:25.025Z,75
2018-06-18T18:39:24.943Z,75
2018-06-18T18:44:25.005Z,76
2018-06-18T18:49:24.830Z,76
2018-06-18T18:54:24.584Z,76
2018-06-18T18:59:24.446Z,76
2018-06-18T19:04:25.404Z,77
2018-06-18T19:09:25.224Z,77
2018-06-18T19:14:25.461Z,78
2018-06-18T19:19:25.287Z,78
2018-06-18T19:24:25.220Z,81
2018-06-18T19:29:25.129Z,81
2018-06-18T19:34:24.928Z,83
2018-06-18T19:39:24.854Z,83
2018-06-18T19:44:24.754Z,84
2018-06-18T19:49:24.507Z,84
2018-06-18T19:54:25.304Z,87
2018-06-18T19:59:25.202Z,87
2018-06-18T20:04:25.273Z,88
2018-06-18T20:09:25.064Z,88
2018-06-18T20:14:24.740Z,89
2018-06-18T20:19:24.595Z,89
2018-06-18T20:24:25.440Z,90
2018-06-18T20:29:25.351Z,90
2018-06-18T20:34:25.305Z,91
2018-06-18T20:39:25.315Z,91
2018-06-18T20:44:25.194Z,91
2018-06-18T20:49:25.114Z,91
2018-06-18T20:54:25.076Z,92
2018-06-18T20:59:25.083Z,92
2018-06-18T21:04:25.293Z,92
2018-06-18T21:09:25.314Z,92
2018-06-18T21:14:24.616Z,92
2018-06-18T21:19:24.677Z,92
2018-06-18T21:24:24.678Z,92
2018-06-18T21:29:24.695Z,92
2018-06-18T21:34:24.803Z,92
2018-06-18T21:39:24.834Z,92
2018-06-18T21:44:24.798Z,93
2018-06-18T21:49:24.831Z,93
2018-06-18T21:54:24.772Z,93
2018-06-18T21:59:24.725Z,93
2018-06-18T22:04:25.685Z,93
2018-06-18T22:09:25.081Z,93
2018-06-18T22:14:25.385Z,93
2018-06-18T22:19:25.412Z,93
2018-06-18T22:24:25.467Z,94
2018-06-18T22:29:25.620Z,94
2018-06-18T22:34:24.867Z,94
2018-06-18T22:39:24.792Z,94
2018-06-18T22:44:24.905Z,94
2018-06-18T22:49:24.897Z,94
2018-06-18T22:54:24.770Z,94
2018-06-18T22:59:24.873Z,94
2018-06-18T23:04:24.984Z,94
2018-06-18T23:09:25.351Z,94
2018-06-18T23:14:25.261Z,94
2018-06-18T23:19:25.725Z,94
2018-06-18T23:24:25.716Z,95
2018-06-18T23:29:25.709Z,95
2018-06-18T23:34:25.693Z,95
2018-06-18T23:39:25.606Z,95
2018-06-18T23:44:25.518Z,95
2018-06-18T23:49:25.615Z,95
2018-06-18T23:54:25.693Z,94
2018-06-18T23:59:25.666Z,94
